Time;durP1;ratioP1;P1;durP2;ratioP2;P2;SDS_P1;SDS_P2;PMS_P1;PMS_P2;Temp;Humidity;BMP_temperature;BMP_pressure;BME280_temperature;BME280_humidity;BME280_pressure;Samples;Min_cycle;Max_cycle;Signal;HPM_P1;HPM_P2
2022/03/30 00:01:31;;;;;;;13.90;12.23;;;8.90;79.30;;;;;;5050680;28;20488;-45
2022/03/30 00:03:58;;;;;;;15.63;13.17;;;9.00;79.90;;;;;;5051123;28;20535;-45
2022/03/30 00:06:27;;;;;;;20.80;15.00;;;9.00;79.60;;;;;;5050856;28;20528;-44
2022/03/30 00:08:54;;;;;;;18.37;14.83;;;9.10;79.00;;;;;;5050608;28;20469;-44
2022/03/30 00:11:22;;;;;;;17.40;13.73;;;9.20;78.30;;;;;;5050573;28;20859;-45
2022/03/30 00:13:49;;;;;;;21.20;15.70;;;9.20;77.50;;;;;;5051017;28;20451;-44
2022/03/30 00:16:16;;;;;;;14.57;12.90;;;9.30;78.50;;;;;;5050648;28;20488;-45
2022/03/30 00:18:43;;;;;;;16.70;14.00;;;9.20;78.50;;;;;;5050586;28;20516;-44
2022/03/30 00:21:10;;;;;;;18.50;13.93;;;9.10;78.20;;;;;;5050451;28;20477;-45
2022/03/30 00:23:39;;;;;;;19.00;14.13;;;9.20;78.70;;;;;;5050720;28;20473;-44
2022/03/30 00:26:05;;;;;;;17.73;12.50;;;9.20;78.10;;;;;;5050851;28;20532;-43
2022/03/30 00:28:32;;;;;;;16.10;14.40;;;9.20;77.50;;;;;;5050723;28;20545;-44
2022/03/30 00:30:59;;;;;;;15.80;13.97;;;9.20;78.20;;;;;;5050665;28;20590;-44
2022/03/30 00:33:27;;;;;;;18.83;15.83;;;8.90;78.40;;;;;;5050714;28;20440;-45
2022/03/30 00:35:54;;;;;;;18.87;14.40;;;9.00;79.40;;;;;;5050398;28;20901;-44
2022/03/30 00:38:21;;;;;;;16.73;13.00;;;8.90;79.30;;;;;;5054261;28;20547;-44
2022/03/30 00:40:49;;;;;;;18.50;14.80;;;8.90;79.20;;;;;;5053675;28;20508;-45
2022/03/30 00:43:17;;;;;;;17.57;13.77;;;8.70;79.50;;;;;;5054385;28;20532;-44
2022/03/30 00:45:44;;;;;;;15.97;14.30;;;8.40;79.20;;;;;;5054487;28;20465;-45
2022/03/30 00:48:11;;;;;;;16.43;13.30;;;8.30;79.90;;;;;;5054005;28;20543;-45
2022/03/30 00:50:38;;;;;;;18.13;15.23;;;7.90;81.10;;;;;;5053914;28;20472;-45
2022/03/30 00:53:05;;;;;;;18.07;13.63;;;7.90;82.00;;;;;;5054278;28;20528;-44
2022/03/30 00:55:33;;;;;;;18.40;13.73;;;8.10;81.60;;;;;;5053878;28;20477;-45
2022/03/30 00:58:02;;;;;;;19.00;13.77;;;8.10;81.40;;;;;;5054006;28;20464;-44
2022/03/30 01:00:29;;;;;;;16.83;13.43;;;8.20;81.30;;;;;;5053712;28;20984;-44
2022/03/30 01:02:56;;;;;;;17.43;13.30;;;8.40;81.00;;;;;;5054039;28;20469;-46
2022/03/30 01:05:23;;;;;;;18.20;14.83;;;8.50;81.00;;;;;;5053329;28;21002;-44
2022/03/30 01:07:51;;;;;;;21.00;14.40;;;8.60;80.50;;;;;;5053823;28;20994;-45
2022/03/30 01:10:18;;;;;;;19.30;15.57;;;8.60;79.80;;;;;;5053614;28;20567;-45
2022/03/30 01:12:47;;;;;;;17.77;15.53;;;8.70;79.70;;;;;;5053538;28;20482;-45
2022/03/30 01:15:15;;;;;;;18.70;15.03;;;8.40;79.50;;;;;;5053504;28;21017;-44
2022/03/30 01:17:43;;;;;;;16.60;14.43;;;8.00;80.40;;;;;;5102470;22;20920;-43
2022/03/30 01:20:11;;;;;;;21.23;16.43;;;8.10;81.90;;;;;;5033018;28;20478;-43
2022/03/30 01:22:40;;;;;;;20.80;16.73;;;8.20;81.90;;;;;;5033398;28;20560;-44
2022/03/30 01:25:09;;;;;;;18.27;16.10;;;8.30;81.10;;;;;;5033729;28;21156;-43
2022/03/30 01:27:36;;;;;;;20.40;14.87;;;8.40;80.60;;;;;;5033571;28;20479;-45
2022/03/30 01:32:56;;;;;;;18.50;15.40;;;8.30;80.80;;;;;;5033390;28;20417;-46
2022/03/30 01:35:23;;;;;;;16.27;14.40;;;8.40;80.70;;;;;;5033802;28;20449;-43
2022/03/30 01:37:52;;;;;;;21.23;15.50;;;8.50;80.90;;;;;;5033038;28;20469;-44
2022/03/30 01:40:19;;;;;;;19.50;15.73;;;8.50;80.90;;;;;;5033353;28;20482;-43
2022/03/30 01:42:46;;;;;;;21.77;15.60;;;8.30;80.60;;;;;;5033109;28;20485;-43
2022/03/30 01:45:15;;;;;;;17.70;15.80;;;8.00;81.90;;;;;;5033407;28;20481;-46
2022/03/30 01:47:48;;;;;;;20.50;15.57;;;8.00;81.90;;;;;;5033060;28;20469;-43
2022/03/30 01:50:15;;;;;;;21.87;16.30;;;7.80;82.40;;;;;;5032957;28;20482;-43
2022/03/30 01:52:42;;;;;;;21.30;17.00;;;7.50;84.20;;;;;;5033465;28;20521;-43
2022/03/30 01:55:11;;;;;;;22.13;17.23;;;7.60;85.60;;;;;;5033481;28;20474;-46
2022/03/30 01:57:38;;;;;;;22.03;16.67;;;7.80;85.00;;;;;;5032856;28;20535;-43
2022/03/30 02:00:07;;;;;;;20.07;15.53;;;8.00;84.00;;;;;;5032714;28;20477;-43
2022/03/30 02:02:34;;;;;;;19.53;15.50;;;8.10;83.40;;;;;;5032753;28;20572;-44
2022/03/30 02:05:01;;;;;;;17.50;15.70;;;8.20;83.80;;;;;;5032820;28;20506;-43
2022/03/30 02:07:29;;;;;;;19.80;16.10;;;8.20;82.90;;;;;;5032887;28;20543;-43
2022/03/30 02:09:56;;;;;;;23.17;16.70;;;8.30;82.50;;;;;;5032486;28;20446;-43
2022/03/30 02:12:24;;;;;;;19.07;16.57;;;8.30;83.20;;;;;;5032785;28;20533;-44
2022/03/30 02:14:53;;;;;;;20.03;15.63;;;8.20;83.00;;;;;;5032639;28;20485;-44
2022/03/30 02:17:20;;;;;;;20.23;16.30;;;8.20;82.90;;;;;;5032687;28;20470;-43
2022/03/30 02:19:47;;;;;;;26.63;17.23;;;8.20;82.70;;;;;;5032359;28;20977;-44
2022/03/30 02:22:15;;;;;;;23.07;16.40;;;8.20;83.30;;;;;;5032322;28;20481;-43
2022/03/30 02:24:42;;;;;;;18.50;16.60;;;8.30;83.20;;;;;;5032595;28;20816;-45
2022/03/30 02:27:09;;;;;;;22.50;15.50;;;8.40;83.60;;;;;;5032343;28;20484;-43
2022/03/30 02:29:37;;;;;;;19.83;15.43;;;8.20;84.00;;;;;;5031860;28;21003;-44
2022/03/30 02:32:05;;;;;;;18.10;16.20;;;8.30;84.30;;;;;;5032262;28;20875;-43
2022/03/30 02:34:32;;;;;;;26.53;16.93;;;8.30;83.50;;;;;;5032347;28;20517;-44
2022/03/30 02:36:59;;;;;;;17.83;14.77;;;8.40;83.70;;;;;;5032007;28;20474;-43
2022/03/30 02:39:26;;;;;;;19.10;16.87;;;8.30;82.80;;;;;;5032085;28;20450;-43
2022/03/30 02:41:55;;;;;;;18.00;16.10;;;8.30;82.50;;;;;;5031921;28;20528;-43
2022/03/30 02:44:22;;;;;;;18.73;16.70;;;8.30;82.30;;;;;;5032015;28;20935;-43
2022/03/30 02:46:51;;;;;;;21.67;15.53;;;8.20;82.90;;;;;;5032216;28;20470;-43
2022/03/30 02:49:18;;;;;;;18.90;16.20;;;8.30;83.20;;;;;;5031578;28;20480;-43
2022/03/30 02:51:45;;;;;;;20.43;16.07;;;8.30;83.20;;;;;;5032265;28;20466;-46
2022/03/30 02:54:12;;;;;;;19.33;16.23;;;8.30;83.50;;;;;;5032081;28;21025;-44
2022/03/30 02:56:39;;;;;;;22.47;17.00;;;8.20;83.40;;;;;;5033959;28;20470;-43
2022/03/30 02:59:06;;;;;;;19.47;15.33;;;7.90;83.90;;;;;;5031353;28;20557;-44
2022/03/30 03:01:33;;;;;;;20.57;15.60;;;7.70;84.00;;;;;;5031735;28;20540;-43
2022/03/30 03:04:02;;;;;;;21.23;17.43;;;7.70;84.50;;;;;;5031826;28;20453;-43
2022/03/30 03:06:29;;;;;;;20.63;15.70;;;7.80;84.60;;;;;;5031776;28;20553;-43
2022/03/30 03:08:57;;;;;;;20.07;17.57;;;7.90;84.50;;;;;;5031466;28;21009;-43
2022/03/30 03:11:24;;;;;;;26.07;18.53;;;7.90;84.30;;;;;;5031342;28;20859;-43
2022/03/30 03:13:51;;;;;;;23.60;17.30;;;7.90;83.60;;;;;;5031627;28;20448;-43
2022/03/30 03:16:18;;;;;;;21.10;17.13;;;7.90;83.40;;;;;;5031518;28;20449;-43
2022/03/30 03:18:45;;;;;;;19.53;16.70;;;7.90;83.30;;;;;;5031512;28;20502;-43
2022/03/30 03:21:14;;;;;;;22.10;16.80;;;7.90;83.60;;;;;;5031546;28;20480;-43
2022/03/30 03:23:41;;;;;;;20.03;16.87;;;7.90;84.40;;;;;;5031361;28;20729;-43
2022/03/30 03:26:08;;;;;;;25.13;15.97;;;7.90;84.30;;;;;;5031654;28;20450;-43
2022/03/30 03:28:35;;;;;;;18.13;14.87;;;7.90;84.30;;;;;;5031164;28;20473;-43
2022/03/30 03:31:02;;;;;;;22.90;16.23;;;7.70;84.20;;;;;;5031275;28;20446;-44
2022/03/30 03:33:29;;;;;;;20.87;17.20;;;7.50;84.70;;;;;;5031431;28;20486;-43
2022/03/30 03:35:56;;;;;;;19.87;16.17;;;7.20;85.70;;;;;;5031321;28;20499;-43
2022/03/30 03:38:24;;;;;;;21.23;16.83;;;7.40;86.40;;;;;;5031091;28;20590;-43
2022/03/30 03:40:51;;;;;;;22.33;16.07;;;7.60;86.20;;;;;;5030793;28;20500;-43
2022/03/30 03:43:18;;;;;;;19.27;15.90;;;7.70;85.80;;;;;;5031147;28;20477;-43
2022/03/30 03:45:45;;;;;;;20.60;16.10;;;7.70;85.30;;;;;;5031080;28;20446;-44
2022/03/30 03:48:12;;;;;;;39.27;26.60;;;7.70;84.70;;;;;;5031178;28;20549;-45
2022/03/30 03:50:39;;;;;;;39.17;25.93;;;7.40;85.10;;;;;;5030858;28;20943;-43
2022/03/30 03:53:06;;;;;;;28.83;20.57;;;7.30;85.80;;;;;;5031104;28;20524;-43
2022/03/30 03:55:36;;;;;;;23.10;19.40;;;7.00;86.10;;;;;;5030836;28;20477;-43
2022/03/30 03:58:05;;;;;;;18.77;15.27;;;7.00;86.90;;;;;;5031179;28;20553;-45
2022/03/30 04:00:33;;;;;;;21.27;17.67;;;6.90;87.70;;;;;;5030549;28;20830;-43
2022/03/30 04:03:01;;;;;;;23.83;16.57;;;7.10;88.10;;;;;;5031224;28;20473;-43
2022/03/30 04:05:28;;;;;;;19.80;16.33;;;7.30;87.30;;;;;;5030679;28;20454;-44
2022/03/30 04:07:55;;;;;;;23.00;18.50;;;7.50;86.60;;;;;;5030944;28;20547;-43
2022/03/30 04:10:22;;;;;;;28.53;17.90;;;7.50;85.70;;;;;;5031647;28;20446;-44
2022/03/30 04:12:50;;;;;;;22.60;17.27;;;7.40;86.20;;;;;;5034790;28;20481;-43
2022/03/30 04:15:18;;;;;;;21.70;16.50;;;7.40;85.80;;;;;;5034784;28;20466;-43
2022/03/30 04:17:45;;;;;;;17.73;15.80;;;7.30;85.80;;;;;;5034952;28;20473;-43
2022/03/30 04:20:14;;;;;;;24.73;16.57;;;7.40;86.50;;;;;;5034522;28;20482;-46
2022/03/30 04:22:41;;;;;;;21.07;16.93;;;7.50;86.60;;;;;;5034754;28;21039;-43
2022/03/30 04:25:09;;;;;;;24.73;17.80;;;7.60;86.30;;;;;;5034627;28;20489;-45
2022/03/30 04:27:36;;;;;;;21.67;16.50;;;7.60;85.70;;;;;;5035187;28;20540;-44
2022/03/30 04:30:05;;;;;;;30.30;21.60;;;7.70;85.80;;;;;;5034315;28;20576;-44
2022/03/30 04:32:32;;;;;;;29.90;23.20;;;7.60;85.80;;;;;;5034440;28;20938;-43
2022/03/30 04:34:59;;;;;;;35.17;25.23;;;7.40;86.30;;;;;;5034739;28;20494;-44
2022/03/30 04:37:26;;;;;;;24.63;18.30;;;7.30;86.40;;;;;;5034403;28;20553;-43
2022/03/30 04:39:53;;;;;;;22.87;19.80;;;7.10;87.20;;;;;;5034585;28;20534;-43
2022/03/30 04:42:21;;;;;;;25.07;19.43;;;7.10;88.30;;;;;;5034080;28;20565;-44
2022/03/30 04:44:48;;;;;;;24.67;19.10;;;7.20;88.20;;;;;;5034291;28;20480;-44
2022/03/30 04:47:17;;;;;;;23.47;19.27;;;7.30;88.10;;;;;;5034149;28;20555;-43
2022/03/30 04:49:44;;;;;;;23.20;18.77;;;7.30;87.50;;;;;;5034142;28;20474;-43
2022/03/30 04:52:11;;;;;;;28.43;20.57;;;7.40;87.20;;;;;;5034412;28;20873;-43
2022/03/30 04:54:38;;;;;;;26.97;19.83;;;7.30;86.70;;;;;;5034092;28;20532;-43
2022/03/30 04:57:05;;;;;;;23.10;19.43;;;7.40;87.00;;;;;;5033738;28;20445;-44
2022/03/30 04:59:32;;;;;;;29.97;18.80;;;7.50;87.30;;;;;;5033814;28;20477;-44
2022/03/30 05:01:59;;;;;;;24.27;18.20;;;7.60;89.10;;;;;;5034054;28;20569;-44
2022/03/30 05:04:29;;;;;;;25.07;17.60;;;7.70;88.90;;;;;;5033900;28;20438;-43
2022/03/30 05:06:56;;;;;;;28.87;19.67;;;7.70;88.40;;;;;;5033859;28;20538;-43
2022/03/30 05:09:24;;;;;;;25.80;18.43;;;7.80;88.40;;;;;;5033525;28;20947;-45
2022/03/30 05:11:51;;;;;;;24.90;19.57;;;7.70;88.50;;;;;;5034121;28;20444;-43
2022/03/30 05:14:18;;;;;;;28.07;20.47;;;7.70;87.90;;;;;;5034060;28;20504;-44
2022/03/30 05:16:45;;;;;;;21.13;18.90;;;7.70;87.10;;;;;;5035892;28;20474;-42
2022/03/30 05:19:12;;;;;;;23.90;18.07;;;7.80;87.30;;;;;;5033787;28;20505;-43
2022/03/30 05:21:41;;;;;;;20.70;16.97;;;7.80;87.40;;;;;;5033465;28;20450;-43
2022/03/30 05:24:08;;;;;;;21.67;18.80;;;7.90;88.20;;;;;;5033146;28;20529;-43
2022/03/30 05:26:35;;;;;;;22.00;17.70;;;7.90;88.40;;;;;;5033758;28;20478;-43
2022/03/30 05:29:02;;;;;;;23.10;17.07;;;7.80;88.30;;;;;;5033308;28;20882;-43
2022/03/30 05:31:29;;;;;;;26.13;20.00;;;7.50;89.90;;;;;;5033478;28;20481;-44
2022/03/30 05:33:56;;;;;;;22.83;19.10;;;7.40;89.60;;;;;;5033415;28;20994;-43
2022/03/30 05:36:23;;;;;;;23.77;18.57;;;7.50;89.90;;;;;;5033651;28;20438;-46
2022/03/30 05:38:51;;;;;;;23.20;20.40;;;7.70;90.40;;;;;;5033148;28;20546;-43
2022/03/30 05:41:18;;;;;;;23.03;18.27;;;7.80;90.20;;;;;;5032974;28;20497;-43
2022/03/30 05:43:45;;;;;;;23.33;19.77;;;7.90;90.00;;;;;;5033289;28;20570;-46
2022/03/30 05:46:12;;;;;;;23.03;19.47;;;8.00;89.50;;;;;;5033203;28;20537;-43
2022/03/30 05:48:39;;;;;;;23.50;19.40;;;8.00;89.50;;;;;;5033596;28;20494;-43
2022/03/30 05:51:06;;;;;;;22.97;18.70;;;8.00;90.20;;;;;;5032974;28;20968;-43
2022/03/30 05:53:34;;;;;;;21.50;18.20;;;8.00;90.70;;;;;;5033212;28;20525;-43
2022/03/30 05:56:02;;;;;;;20.97;18.40;;;8.00;90.50;;;;;;5033387;28;20453;-43
2022/03/30 05:58:29;;;;;;;26.73;20.40;;;8.10;90.40;;;;;;5033167;28;20887;-43
2022/03/30 06:00:56;;;;;;;22.77;19.53;;;8.10;90.40;;;;;;5032777;28;20482;-44
2022/03/30 06:03:23;;;;;;;28.80;23.30;;;8.20;90.70;;;;;;5032699;28;20932;-43
2022/03/30 06:05:51;;;;;;;26.80;22.00;;;8.10;90.60;;;;;;5033050;28;20533;-43
2022/03/30 06:08:18;;;;;;;27.03;20.10;;;7.80;90.70;;;;;;5032810;28;20558;-44
2022/03/30 06:10:45;;;;;;;27.87;21.17;;;7.70;92.50;;;;;;5032987;28;20481;-47
2022/03/30 06:13:13;;;;;;;25.60;20.57;;;7.80;92.50;;;;;;5032641;28;20470;-43
2022/03/30 06:15:41;;;;;;;26.57;23.00;;;7.90;92.00;;;;;;5032789;28;20535;-43
2022/03/30 06:18:11;;;;;;;28.83;22.83;;;8.10;91.10;;;;;;5032748;28;20920;-45
2022/03/30 06:20:39;;;;;;;26.00;23.30;;;8.20;91.10;;;;;;5032405;28;20462;-44
2022/03/30 06:23:06;;;;;;;43.33;30.10;;;8.30;91.00;;;;;;5032339;28;20474;-43
2022/03/30 06:25:33;;;;;;;27.50;24.37;;;8.20;90.70;;;;;;5032399;28;20924;-43
2022/03/30 06:28:01;;;;;;;86.37;62.30;;;7.90;91.10;;;;;;5031080;28;20469;-46
2022/03/30 06:30:30;;;;;;;72.67;45.40;;;8.00;91.50;;;;;;5032033;28;20481;-43
2022/03/30 06:32:57;;;;;;;39.13;29.30;;;8.10;91.50;;;;;;5032502;28;20453;-44
2022/03/30 06:35:25;;;;;;;34.43;27.23;;;8.10;91.80;;;;;;5031414;28;20442;-43
2022/03/30 06:37:52;;;;;;;27.90;23.87;;;8.10;91.70;;;;;;5032273;28;21037;-43
2022/03/30 06:40:19;;;;;;;27.57;21.27;;;8.20;91.30;;;;;;5031796;28;20525;-46
2022/03/30 06:42:48;;;;;;;29.33;22.77;;;8.30;90.00;;;;;;5031756;28;20469;-43
2022/03/30 06:45:15;;;;;;;29.83;23.40;;;8.40;91.10;;;;;;5032194;28;20508;-43
2022/03/30 06:47:44;;;;;;;28.03;22.60;;;8.50;91.70;;;;;;5031981;28;20548;-43
2022/03/30 06:50:13;;;;;;;26.63;23.70;;;8.50;91.40;;;;;;5032014;28;20453;-43
2022/03/30 06:52:41;;;;;;;26.20;22.30;;;8.60;91.50;;;;;;5031806;28;20958;-43
2022/03/30 06:55:09;;;;;;;30.43;23.10;;;8.70;91.30;;;;;;5031998;28;20446;-46
2022/03/30 06:57:36;;;;;;;25.80;21.70;;;8.70;90.50;;;;;;5031716;28;20464;-43
2022/03/30 07:00:04;;;;;;;29.23;22.10;;;8.70;90.00;;;;;;5031610;28;20907;-43
2022/03/30 07:02:31;;;;;;;25.10;20.13;;;8.80;87.80;;;;;;5031372;28;20566;-44
2022/03/30 07:05:00;;;;;;;25.47;20.67;;;8.90;87.30;;;;;;5031969;28;20476;-43
2022/03/30 07:10:17;;;;;;;24.17;20.23;;;8.70;86.80;;;;;;5031554;28;20422;-46
2022/03/30 07:12:46;;;;;;;30.50;21.70;;;8.70;87.20;;;;;;5031793;28;20967;-44
2022/03/30 07:15:14;;;;;;;27.30;20.30;;;8.80;87.00;;;;;;5031521;28;20449;-44
2022/03/30 07:17:45;;;;;;;29.00;21.03;;;8.80;87.20;;;;;;5089527;22;20474;-43
2022/03/30 07:20:14;;;;;;;37.97;26.00;;;8.90;88.60;;;;;;5070234;28;20460;-45
2022/03/30 07:22:41;;;;;;;34.23;27.00;;;9.10;90.80;;;;;;5071163;28;20479;-44
2022/03/30 07:25:09;;;;;;;39.70;26.30;;;9.20;91.40;;;;;;5071068;28;20437;-47
2022/03/30 07:27:39;;;;;;;32.77;24.17;;;9.30;91.20;;;;;;5071294;28;20468;-44
2022/03/30 07:30:07;;;;;;;30.13;23.40;;;9.30;91.20;;;;;;5070749;28;20964;-44
2022/03/30 07:32:35;;;;;;;35.27;24.57;;;9.40;90.80;;;;;;5071189;28;20448;-47
2022/03/30 07:35:02;;;;;;;30.80;26.40;;;9.40;90.70;;;;;;5071339;28;20445;-44
2022/03/30 07:37:31;;;;;;;36.90;25.73;;;9.40;90.50;;;;;;5071192;28;20472;-45
2022/03/30 07:39:58;;;;;;;29.90;24.63;;;9.30;90.80;;;;;;5070960;28;20487;-44
2022/03/30 07:42:25;;;;;;;26.73;23.13;;;9.20;91.40;;;;;;5070775;28;20472;-44
2022/03/30 07:44:51;;;;;;;31.03;24.23;;;9.10;91.10;;;;;;5070902;28;20867;-45
2022/03/30 07:47:19;;;;;;;32.77;25.27;;;9.00;90.60;;;;;;5070891;28;20455;-44
2022/03/30 07:49:46;;;;;;;38.67;27.00;;;8.90;90.20;;;;;;5070532;28;20465;-44
2022/03/30 07:52:13;;;;;;;34.93;24.93;;;8.90;90.00;;;;;;5071168;28;20494;-44
2022/03/30 07:54:42;;;;;;;30.30;24.83;;;9.00;89.40;;;;;;5071361;28;20464;-48
2022/03/30 07:57:09;;;;;;;33.60;24.87;;;9.00;89.40;;;;;;5070654;28;20477;-44
2022/03/30 07:59:36;;;;;;;34.60;24.10;;;9.00;90.10;;;;;;5070563;28;20543;-44
2022/03/30 08:02:04;;;;;;;31.53;25.07;;;9.00;89.50;;;;;;5070798;28;20527;-44
2022/03/30 08:04:30;;;;;;;34.53;25.20;;;9.20;89.70;;;;;;5070734;28;20518;-45
2022/03/30 08:06:57;;;;;;;29.73;22.80;;;9.30;89.10;;;;;;5070936;28;20938;-44
2022/03/30 08:09:24;;;;;;;28.90;23.77;;;9.30;86.50;;;;;;5070739;28;20499;-44
2022/03/30 08:11:53;;;;;;;34.00;26.53;;;9.30;87.60;;;;;;5070894;28;20468;-48
2022/03/30 08:14:20;;;;;;;28.23;23.17;;;9.20;89.50;;;;;;5070606;28;20948;-45
2022/03/30 08:16:47;;;;;;;31.97;23.70;;;9.30;88.70;;;;;;5070924;28;20483;-44
2022/03/30 08:19:14;;;;;;;30.47;25.43;;;9.20;88.50;;;;;;5070680;28;20507;-45
2022/03/30 08:24:28;;;;;;;30.43;25.10;;;9.40;89.10;;;;;;5044674;28;20480;-44
2022/03/30 08:26:56;;;;;;;28.27;24.40;;;9.40;88.60;;;;;;5070219;28;20441;-44
2022/03/30 08:29:24;;;;;;;26.10;23.40;;;9.30;89.40;;;;;;5069110;28;20499;-44
2022/03/30 08:31:51;;;;;;;29.57;25.70;;;9.30;88.80;;;;;;5070549;28;20528;-46
2022/03/30 08:34:18;;;;;;;31.47;27.10;;;9.30;88.90;;;;;;5070561;28;20472;-44
2022/03/30 08:36:45;;;;;;;33.37;27.50;;;9.40;89.40;;;;;;5070461;28;20452;-45
2022/03/30 08:39:13;;;;;;;35.77;25.80;;;9.30;89.90;;;;;;5070410;28;20496;-44
2022/03/30 08:41:43;;;;;;;28.30;25.30;;;9.30;90.20;;;;;;5070196;28;20523;-45
2022/03/30 08:44:14;;;;;;;31.83;24.20;;;9.40;90.10;;;;;;5070361;28;20824;-44
2022/03/30 08:46:45;;;;;;;32.03;25.43;;;9.50;88.50;;;;;;5070694;28;20455;-45
2022/03/30 08:49:12;;;;;;;27.10;23.17;;;9.50;87.60;;;;;;5070023;28;20502;-47
2022/03/30 08:51:41;;;;;;;30.57;23.97;;;9.50;86.80;;;;;;5070721;28;20491;-44
2022/03/30 08:54:12;;;;;;;27.50;23.20;;;9.60;86.20;;;;;;5070777;28;20476;-44
2022/03/30 08:56:39;;;;;;;36.83;22.60;;;9.60;87.90;;;;;;5070155;28;20693;-44
2022/03/30 08:59:08;;;;;;;28.40;22.70;;;9.60;87.30;;;;;;5073164;28;20891;-45
2022/03/30 09:01:40;;;;;;;27.77;23.93;;;9.60;86.30;;;;;;5073571;28;20524;-46
2022/03/30 09:04:11;;;;;;;26.93;23.50;;;9.70;85.30;;;;;;5074175;28;20479;-45
2022/03/30 09:06:43;;;;;;;29.50;24.43;;;9.80;84.70;;;;;;5073842;28;20447;-45
2022/03/30 09:09:11;;;;;;;30.13;23.90;;;10.00;83.80;;;;;;5073241;28;20495;-45
2022/03/30 09:11:45;;;;;;;29.00;23.33;;;10.10;83.30;;;;;;5074020;28;20887;-45
2022/03/30 09:14:13;;;;;;;28.87;23.47;;;10.10;83.20;;;;;;5073617;28;20445;-45
2022/03/30 09:16:44;;;;;;;28.33;22.50;;;10.10;82.60;;;;;;5073221;28;20448;-44
2022/03/30 09:19:13;;;;;;;26.73;23.10;;;10.30;82.10;;;;;;5073214;28;20914;-44
2022/03/30 09:21:44;;;;;;;33.37;23.83;;;10.40;82.50;;;;;;5074143;28;20437;-48
2022/03/30 09:24:11;;;;;;;24.90;21.33;;;10.50;83.40;;;;;;5073835;28;20571;-44
2022/03/30 09:26:38;;;;;;;29.70;22.50;;;10.60;81.90;;;;;;5073656;28;20973;-48
2022/03/30 09:29:07;;;;;;;28.63;23.17;;;10.70;81.50;;;;;;5072845;28;20555;-44
2022/03/30 09:31:35;;;;;;;26.83;23.87;;;10.90;80.40;;;;;;5073726;28;20506;-44
2022/03/30 09:34:05;;;;;;;30.00;21.90;;;11.00;80.00;;;;;;5073232;28;20516;-44
2022/03/30 09:36:34;;;;;;;28.40;23.07;;;11.10;80.40;;;;;;5073365;28;20893;-46
2022/03/30 09:39:01;;;;;;;28.63;23.50;;;11.10;79.80;;;;;;5073203;28;20993;-46
2022/03/30 09:41:45;;;;;;;25.30;21.77;;;11.20;78.10;;;;;;5073307;28;20475;-46
2022/03/30 09:44:13;;;;;;;30.90;24.20;;;11.20;78.20;;;;;;5073298;28;20476;-44
2022/03/30 09:46:52;;;;;;;26.50;20.93;;;11.10;78.20;;;;;;5073425;28;20445;-45
2022/03/30 09:49:38;;;;;;;26.33;22.23;;;11.10;77.10;;;;;;5072575;28;20460;-45
2022/03/30 09:52:16;;;;;;;32.23;23.83;;;11.00;78.50;;;;;;5073062;28;21022;-44
2022/03/30 09:54:49;;;;;;;32.13;26.23;;;11.00;79.80;;;;;;5072949;28;20929;-46
2022/03/30 09:57:18;;;;;;;30.60;24.07;;;11.10;79.50;;;;;;5071311;28;20961;-46
2022/03/30 10:00:18;;;;;;;32.37;24.37;;;11.20;78.30;;;;;;5072231;28;20507;-45
2022/03/30 10:02:46;;;;;;;28.70;23.80;;;11.30;77.00;;;;;;5010410;28;20931;-47
2022/03/30 10:05:17;;;;;;;31.10;24.20;;;11.40;77.40;;;;;;5059969;28;20488;-45
2022/03/30 10:07:45;;;;;;;30.10;22.80;;;11.50;77.10;;;;;;5072854;28;20453;-44
2022/03/30 10:10:16;;;;;;;28.43;23.57;;;11.60;76.50;;;;;;5072175;28;20444;-45
2022/03/30 10:12:43;;;;;;;29.73;23.27;;;11.60;74.60;;;;;;5072224;28;20536;-46
2022/03/30 10:15:12;;;;;;;30.53;23.30;;;11.70;73.80;;;;;;5072752;28;20464;-45
2022/03/30 10:17:40;;;;;;;28.10;23.40;;;11.80;73.80;;;;;;5071758;28;20436;-44
2022/03/30 10:20:10;;;;;;;30.97;24.37;;;11.80;73.40;;;;;;5072680;28;20483;-45
2022/03/30 10:23:04;;;;;;;30.13;23.20;;;11.80;73.90;;;;;;5072388;28;20449;-45
2022/03/30 10:25:49;;;;;;;27.03;24.07;;;12.00;74.40;;;;;;5072213;28;20473;-45
2022/03/30 10:28:23;;;;;;;35.03;23.97;;;12.00;73.20;;;;;;5072349;28;20548;-45
2022/03/30 10:30:54;;;;;;;29.30;22.43;;;12.10;72.70;;;;;;5071931;28;20815;-44
2022/03/30 10:33:32;;;;;;;27.73;24.27;;;12.00;71.60;;;;;;5071312;28;21001;-47
2022/03/30 10:36:19;;;;;;;26.50;22.60;;;11.90;72.00;;;;;;5073117;28;20929;-46
2022/03/30 10:39:24;;;;;;;26.77;23.87;;;11.90;71.80;;;;;;5081411;28;20549;-45
2022/03/30 10:41:53;;;;;;;31.70;24.07;;;12.00;72.10;;;;;;5082031;28;20431;-45
2022/03/30 10:44:38;;;;;;;32.10;22.30;;;12.00;73.10;;;;;;5081462;28;20563;-44
2022/03/30 10:47:13;;;;;;;25.57;21.73;;;12.10;74.90;;;;;;5080889;28;20523;-44
2022/03/30 10:49:47;;;;;;;29.53;24.73;;;12.20;74.60;;;;;;5077311;28;20970;-45
2022/03/30 10:52:38;;;;;;;31.03;22.20;;;12.20;74.40;;;;;;5071677;28;20985;-48
2022/03/30 10:55:36;;;;;;;34.40;23.40;;;12.10;76.30;;;;;;5071728;28;20444;-45
2022/03/30 10:58:04;;;;;;;28.40;23.47;;;12.10;76.00;;;;;;5071917;28;20552;-45
2022/03/30 11:00:34;;;;;;;28.23;23.40;;;12.20;75.30;;;;;;5071378;28;20472;-44
2022/03/30 11:03:10;;;;;;;31.33;24.13;;;12.30;74.10;;;;;;5071721;28;20452;-44
2022/03/30 11:05:37;;;;;;;28.50;24.27;;;12.30;73.10;;;;;;5071480;28;21026;-46
2022/03/30 11:08:06;;;;;;;44.47;25.80;;;12.40;73.10;;;;;;5070746;28;20871;-45
2022/03/30 11:10:48;;;;;;;28.37;23.17;;;12.40;73.00;;;;;;5069571;28;20447;-44
2022/03/30 11:13:25;;;;;;;28.70;25.67;;;12.40;72.60;;;;;;5069926;28;20452;-45
2022/03/30 11:16:11;;;;;;;28.47;24.27;;;12.50;73.20;;;;;;5070186;28;20444;-46
2022/03/30 11:19:02;;;;;;;31.73;25.53;;;12.50;72.40;;;;;;5069661;28;20981;-45
2022/03/30 11:21:29;;;;;;;30.93;23.57;;;12.60;74.40;;;;;;5069296;28;20531;-45
2022/03/30 11:24:18;;;;;;;29.57;22.33;;;12.60;75.20;;;;;;5070285;28;21082;-45
2022/03/30 11:27:21;;;;;;;29.43;24.20;;;12.70;74.30;;;;;;5071502;28;20444;-45
2022/03/30 11:30:16;;;;;;;27.30;22.20;;;12.80;72.80;;;;;;5071291;28;20514;-46
2022/03/30 11:33:10;;;;;;;25.30;21.53;;;12.90;71.80;;;;;;5071510;28;20471;-45
2022/03/30 11:35:42;;;;;;;28.50;22.87;;;12.90;71.30;;;;;;5071278;28;20441;-45
2022/03/30 11:38:25;;;;;;;31.57;23.23;;;13.10;72.90;;;;;;5071448;28;20895;-48
2022/03/30 11:40:59;;;;;;;22.20;19.80;;;13.20;70.50;;;;;;5070941;28;20454;-46
2022/03/30 11:43:27;;;;;;;26.17;21.47;;;13.30;68.40;;;;;;5071292;28;20506;-45
2022/03/30 11:45:54;;;;;;;28.47;22.80;;;13.40;71.00;;;;;;5070808;28;20511;-44
2022/03/30 11:48:21;;;;;;;24.63;22.00;;;13.40;70.80;;;;;;5071182;28;20484;-46
2022/03/30 11:50:51;;;;;;;26.80;20.60;;;13.50;70.00;;;;;;5070638;28;20532;-45
2022/03/30 11:53:22;;;;;;;25.97;22.30;;;13.50;69.00;;;;;;5071244;28;20437;-46
2022/03/30 11:55:53;;;;;;;26.10;22.47;;;13.50;70.20;;;;;;5070417;28;20472;-45
2022/03/30 11:58:30;;;;;;;25.07;22.30;;;13.50;70.80;;;;;;5071144;28;20557;-49
2022/03/30 12:00:58;;;;;;;26.67;23.60;;;13.40;69.80;;;;;;5070024;28;21011;-45
2022/03/30 12:03:26;;;;;;;30.47;23.13;;;13.40;69.40;;;;;;5070951;28;20866;-45
2022/03/30 12:05:55;;;;;;;32.43;22.27;;;13.30;68.00;;;;;;5070663;28;20486;-44
2022/03/30 12:08:23;;;;;;;28.77;24.10;;;13.40;68.50;;;;;;5070422;28;20796;-46
2022/03/30 12:10:53;;;;;;;31.67;25.63;;;13.40;67.70;;;;;;5070761;28;20808;-45
2022/03/30 12:13:24;;;;;;;32.17;24.23;;;13.40;70.10;;;;;;5071130;28;20444;-44
2022/03/30 12:16:03;;;;;;;29.20;23.30;;;13.50;69.90;;;;;;5070841;28;20447;-47
2022/03/30 12:18:30;;;;;;;31.70;24.70;;;13.40;70.90;;;;;;5070441;28;20547;-45
2022/03/30 12:21:01;;;;;;;31.40;23.00;;;13.40;72.40;;;;;;5070954;28;20424;-44
2022/03/30 12:23:29;;;;;;;28.43;22.30;;;13.40;71.90;;;;;;5071068;28;20786;-45
2022/03/30 12:25:56;;;;;;;25.67;22.13;;;13.40;72.00;;;;;;5070822;28;20567;-49
2022/03/30 12:28:30;;;;;;;30.43;22.87;;;13.40;71.00;;;;;;5070666;28;20503;-44
2022/03/30 12:30:57;;;;;;;27.77;22.17;;;13.40;71.90;;;;;;5070261;28;20474;-45
2022/03/30 12:33:25;;;;;;;25.50;20.80;;;13.50;70.40;;;;;;5074081;28;20544;-49
2022/03/30 12:35:54;;;;;;;24.10;20.90;;;13.50;69.00;;;;;;5074551;28;20861;-46
2022/03/30 12:38:24;;;;;;;30.03;22.27;;;13.40;67.80;;;;;;5074646;28;20470;-44
2022/03/30 12:40:53;;;;;;;28.17;20.83;;;13.40;68.60;;;;;;5074279;28;20441;-49
2022/03/30 12:43:28;;;;;;;24.67;20.53;;;13.50;69.90;;;;;;5074207;28;20471;-44
2022/03/30 12:45:59;;;;;;;24.40;20.20;;;13.50;69.20;;;;;;5074130;28;20479;-45
2022/03/30 12:48:30;;;;;;;28.40;21.70;;;13.50;68.60;;;;;;5074380;28;20492;-49
2022/03/30 12:50:59;;;;;;;25.17;20.10;;;13.40;68.40;;;;;;5074093;28;20483;-44
2022/03/30 12:53:34;;;;;;;25.97;21.00;;;13.50;68.30;;;;;;5074297;28;20782;-45